Климово

Карта отелей и гостиниц, располагающихся рядом с аэропортом Климово :

Климово Брянская область 52° 20' 26.0412" N, 32° 10' 7.0212" E
Код аэродрома ИКАО
XUWI
Код аэродрома RU
ЬУВИ
Координаты
N52.34057° E032.16862°
Превышение над уровнем моря
180
Основная полоса
09/27
Курс магнитный
089/269
Длина основной ВПП
2535
Ширина основной ВПП
38
Покрытие основной ВПП
Твёрдое (бетон)
Освещение ВПП
Нет
Тип: 
Аэродром
Класс аэродрома: 
Принадлежность: 
МО
Статус: 
Недействующий
Сайт: 
E-mail аэродрома: 
Страна: 
Россия
Регион: 
Брянская область
Город: 
Дополнительная информация: 
Во времена СССР филиал Черниговского ВВАУЛ.

Найти трансфер

С помощью этой формы Вы можете найти трансфер из аэропорта Климово в город, аэропорт или вокзал:

Карта места

Javascript is required to view this map.

Погода в аэропортах:

Авиационная погода в Куусамо

Регион: 
Погода METAR: 
EFKS 281320Z AUTO VRB01KT 9999 -SHSN SCT003 M19/M21 Q1010
Время наблюдения
2021-11-28T13:20:00Z
Температура C
-19.0
Точка росы
-21.0
Направление ветра
0
Скорость ветра (узлы)
1
Метео видимость
6.21
Явления погоды
-SHSN
Условия полета
VFR

Авиационная погода в Череповце

Регион: 
Погода METAR: 
ULWC 281300Z 25005G10MPS 9999 -SHSNRA BKN006 OVC013CB 01/M00 Q0998 R21/690239 NOSIG RMK QFE738/0985
Время наблюдения
2021-11-28T13:00:00Z
Температура C
1.0
Точка росы
0.0
Направление ветра
250
Скорость ветра (узлы)
10
Метео видимость
6.21
Явления погоды
-SHSN -SHRA
Условия полета
IFR
Аэропорт подробнее: 

Авиационная погода в Емельяново

Регион: 
Погода METAR: 
UNKL 281300Z 25007MPS 6000 -SHSN SCT041CB M05/M08 Q1026 R29/810245 NOSIG RMK QFE743
Время наблюдения
2021-11-28T13:00:00Z
Температура C
-5.0
Точка росы
-8.0
Направление ветра
250
Скорость ветра (узлы)
14
Метео видимость
3.73
Явления погоды
-SHSN
Условия полета
MVFR
Аэропорт подробнее: 

Авиационная погода в Кривом Роге

Регион: 
Погода METAR: 
UKDR 281300Z 14005MPS 0450 R18/0900N FG VV002 09/09 Q1005 BECMG 0500 FG VV002
Время наблюдения
2021-11-28T13:00:00Z
Температура C
9.0
Точка росы
9.0
Направление ветра
140
Скорость ветра (узлы)
10
Метео видимость
0.28
Явления погоды
FG
Условия полета
LIFR
Аэропорт подробнее: